Millerville, AL (36267)

10:45 AM CST on December 22, 2014 (GMT -0600)
Weathers | Change Station
CLOSE
Current Station
Personal Weather Station
Location: Talladega, AL
Elevation: 942 ft
Nearby Weather Stations

Elev 942 ft 33.32 °N, 85.96 °W | Updated 11 minutes ago

Overcast
Overcast
50.4 °F
Feels Like 50.4 °F
N
2.2
Wind Variable Wind from NW

Today
High -- | Low -- °F
--% Chance of Precip.
Yesterday
High -- | Low -- °F
Precip. -- in
6:43 AM 4:41 PM
New Moon, 1% visible
Pressure 29.95 in
Visibility 7.0 miles
Clouds Overcast 300 ft
Dew Point 49 °F
Humidity 96%
Rainfall 0.00 in
Snow Depth Not available.
UV 1 out of 12
Pollen 1.90 out of 12
Air Quality Not available.
Flu Activity Not available.
METAR KALX 221635Z AUTO 12008KT 7SM OVC003 12/10 A2995 RMK AO2 T01230101

More Conditions Fewer Conditions

Pressure 29.95 in
Visibility 7.0 miles
Clouds Overcast 300 ft
Dew Point 49 °F
Humidity 96%
Rainfall 0.00 in
Snow Depth Not available.
UV 1 out of 12
Pollen 1.90 out of 12
Air Quality Not available.
Flu Activity Not available.
METAR KALX 221635Z AUTO 12008KT 7SM OVC003 12/10 A2995 RMK AO2 T01230101

More Conditions Fewer Conditions

10-Day Weather Forecast

Almanac

Astronomy

Dec. 22, 2014 Rise Set
Actual Time
Civil Twilight
Nautical Twilight
Astronomical Twilight
Moon
Length of Visible Light
Length of Day
Tomorrow will be .
, % of the Moon is Illuminated

Today's Extremes

State Highs State Lows

Community

WunderPhotos

Upload Photos

1,779,641 photos uploaded!

WunderBlogs® & News

Nearby

Air Quality

  Air Quality AQ Index Pollutant
Not available.

Snow Depth

Station Depth Elevation

Earthquake Activity

City Distance Mag. Time & Date
Minimum magnitude displayed is 2.5.

Coastal Water Temperatures

Place Temperature

Nearby Weather Stations